createdAt,value
2022-12-14T00:00:46.901Z,19.00
2022-12-14T00:01:49.497Z,19.30
2022-12-14T00:02:46.957Z,17.50
2022-12-14T00:03:46.824Z,18.60
2022-12-14T00:04:46.726Z,18.00
2022-12-14T00:05:46.693Z,18.20
2022-12-14T00:06:46.661Z,18.10
2022-12-14T00:07:46.626Z,18.50
2022-12-14T00:08:46.600Z,19.00
2022-12-14T00:09:46.568Z,17.70
2022-12-14T00:10:46.544Z,19.20
2022-12-14T00:11:46.508Z,18.80
2022-12-14T00:12:46.484Z,18.10
2022-12-14T00:13:49.150Z,18.20
2022-12-14T00:14:46.422Z,18.30
2022-12-14T00:15:46.529Z,17.80
2022-12-14T00:16:46.358Z,17.80
2022-12-14T00:17:46.322Z,19.00
2022-12-14T00:18:46.295Z,18.40
2022-12-14T00:19:48.920Z,19.30
2022-12-14T00:20:46.241Z,19.00
2022-12-14T00:21:46.202Z,17.60
2022-12-14T00:22:46.176Z,18.40
2022-12-14T00:23:46.143Z,18.50
2022-12-14T00:24:46.115Z,18.00
2022-12-14T00:25:46.081Z,17.80
2022-12-14T00:26:46.052Z,17.80
2022-12-14T00:27:46.024Z,18.90
2022-12-14T00:28:45.996Z,17.80
2022-12-14T00:29:45.962Z,17.50
2022-12-14T00:30:45.977Z,17.40
2022-12-14T00:31:48.822Z,18.50
2022-12-14T00:32:45.871Z,18.20
2022-12-14T00:33:45.837Z,17.30
2022-12-14T00:34:45.810Z,18.10
2022-12-14T00:35:45.780Z,17.90
2022-12-14T00:36:45.754Z,17.60
2022-12-14T00:37:45.717Z,17.70
2022-12-14T00:38:45.693Z,17.60
2022-12-14T00:39:45.657Z,18.40
2022-12-14T00:40:45.636Z,18.60
2022-12-14T00:41:45.602Z,18.70
2022-12-14T00:42:45.572Z,18.40
2022-12-14T00:43:45.539Z,17.30
2022-12-14T00:44:45.505Z,17.10
2022-12-14T00:45:45.478Z,17.50
2022-12-14T00:46:45.456Z,17.60
2022-12-14T00:47:45.437Z,17.50
2022-12-14T00:48:45.391Z,17.30
2022-12-14T00:49:45.353Z,17.20
2022-12-14T00:50:48.559Z,16.50
2022-12-14T00:51:45.300Z,18.20
2022-12-14T00:52:45.263Z,16.70
2022-12-14T00:53:45.235Z,16.00
2022-12-14T00:54:45.202Z,17.10
2022-12-14T00:55:49.374Z,15.90
2022-12-14T00:56:45.149Z,16.20
2022-12-14T00:57:45.112Z,15.80
2022-12-14T00:58:45.089Z,15.90
2022-12-14T00:59:45.049Z,16.50
2022-12-14T01:00:45.028Z,16.60
2022-12-14T01:01:45.109Z,15.80
2022-12-14T01:02:45.061Z,15.60
2022-12-14T01:03:44.994Z,15.60
2022-12-14T01:04:44.902Z,15.50
2022-12-14T01:05:49.373Z,15.20
2022-12-14T01:06:44.839Z,16.40
2022-12-14T01:07:44.806Z,15.10
2022-12-14T01:08:44.777Z,15.90
2022-12-14T01:09:44.744Z,15.50
2022-12-14T01:10:44.719Z,16.30
2022-12-14T01:11:44.684Z,16.20
2022-12-14T01:12:44.653Z,16.00
2022-12-14T01:13:44.630Z,15.70
2022-12-14T01:14:44.596Z,15.90
2022-12-14T01:15:44.602Z,16.10
2022-12-14T01:16:44.537Z,16.00
2022-12-14T01:17:44.509Z,16.40
2022-12-14T01:18:44.476Z,15.50
2022-12-14T01:19:44.466Z,15.60
2022-12-14T01:20:44.409Z,15.80
2022-12-14T01:21:44.395Z,15.60
2022-12-14T01:22:44.353Z,16.40
2022-12-14T01:23:44.331Z,15.20
2022-12-14T01:24:44.290Z,15.60
2022-12-14T01:25:44.267Z,15.10
2022-12-14T01:26:44.237Z,15.50
2022-12-14T01:27:44.204Z,16.00
2022-12-14T01:28:44.173Z,15.90
2022-12-14T01:29:44.146Z,14.80
2022-12-14T01:30:44.118Z,15.50
2022-12-14T01:31:44.083Z,15.70
2022-12-14T01:32:44.054Z,14.80
2022-12-14T01:33:44.023Z,15.90
2022-12-14T01:34:43.990Z,15.40
2022-12-14T01:35:43.983Z,15.90
2022-12-14T01:36:43.930Z,14.90
2022-12-14T01:37:43.900Z,15.30
2022-12-14T01:38:43.870Z,15.60
2022-12-14T01:39:43.837Z,14.90
2022-12-14T01:40:43.808Z,15.40
2022-12-14T01:41:43.779Z,15.40
2022-12-14T01:42:43.744Z,14.60
2022-12-14T01:43:43.720Z,15.80
2022-12-14T01:44:43.686Z,14.70
2022-12-14T01:45:43.660Z,15.40
2022-12-14T01:46:43.678Z,14.20
2022-12-14T01:47:43.595Z,14.90
2022-12-14T01:48:43.561Z,14.60
2022-12-14T01:49:43.534Z,14.80
2022-12-14T01:50:43.505Z,14.90
2022-12-14T01:51:43.504Z,14.20
2022-12-14T01:52:43.442Z,16.40
2022-12-14T01:53:43.414Z,15.50
2022-12-14T01:54:43.386Z,15.20
2022-12-14T01:55:45.130Z,15.30
2022-12-14T01:56:43.324Z,14.10
2022-12-14T01:57:43.299Z,15.40
2022-12-14T01:58:43.263Z,15.50
2022-12-14T01:59:43.234Z,14.60
2022-12-14T02:00:43.204Z,15.00
2022-12-14T02:01:43.237Z,15.70
2022-12-14T02:02:43.324Z,14.00
2022-12-14T02:03:43.160Z,14.80
2022-12-14T02:04:43.080Z,15.10
2022-12-14T02:05:43.067Z,15.40
2022-12-14T02:06:43.018Z,16.00
2022-12-14T02:07:43.015Z,16.70
2022-12-14T02:08:42.959Z,17.10
2022-12-14T02:09:42.932Z,17.20
2022-12-14T02:10:42.897Z,17.30
2022-12-14T02:11:42.866Z,16.80
2022-12-14T02:12:42.837Z,16.20
2022-12-14T02:13:42.813Z,17.70
2022-12-14T02:14:42.778Z,16.20
2022-12-14T02:15:42.750Z,17.60
2022-12-14T02:16:42.723Z,15.90
2022-12-14T02:17:42.690Z,16.00
2022-12-14T02:18:42.661Z,15.80
2022-12-14T02:19:42.628Z,14.60
2022-12-14T02:20:42.595Z,14.10
2022-12-14T02:21:42.564Z,13.90
2022-12-14T02:22:42.530Z,13.20
2022-12-14T02:23:42.524Z,13.10
2022-12-14T02:24:42.473Z,13.20
2022-12-14T02:25:42.445Z,13.90
2022-12-14T02:26:42.411Z,14.00
2022-12-14T02:27:42.383Z,13.40
2022-12-14T02:28:42.350Z,13.80
2022-12-14T02:29:42.326Z,13.40
2022-12-14T02:30:42.298Z,14.00
2022-12-14T02:31:42.308Z,13.70
2022-12-14T02:32:42.234Z,14.10
2022-12-14T02:33:42.201Z,13.20
2022-12-14T02:34:42.169Z,13.50
2022-12-14T02:35:42.142Z,14.00
2022-12-14T02:36:42.113Z,12.60
2022-12-14T02:37:42.078Z,13.00
2022-12-14T02:38:42.047Z,12.80
2022-12-14T02:39:42.045Z,13.50
2022-12-14T02:40:41.989Z,13.00
2022-12-14T02:41:41.960Z,12.10
2022-12-14T02:42:41.925Z,12.60
2022-12-14T02:43:41.900Z,12.20
2022-12-14T02:44:41.869Z,13.00
2022-12-14T02:45:41.841Z,13.40
2022-12-14T02:46:45.085Z,13.90
2022-12-14T02:47:41.774Z,12.80
2022-12-14T02:48:41.750Z,11.90
2022-12-14T02:49:41.719Z,13.00
2022-12-14T02:50:41.684Z,12.90
2022-12-14T02:51:41.659Z,13.00
2022-12-14T02:52:41.624Z,12.40
2022-12-14T02:53:41.601Z,13.00
2022-12-14T02:54:41.561Z,12.00
2022-12-14T02:55:41.556Z,13.30
2022-12-14T02:56:41.502Z,12.40
2022-12-14T02:57:41.473Z,12.90
2022-12-14T02:58:41.439Z,12.70
2022-12-14T02:59:41.417Z,12.20
2022-12-14T03:00:41.456Z,11.80
2022-12-14T03:01:41.622Z,14.00
2022-12-14T03:02:41.385Z,13.60
2022-12-14T03:03:41.298Z,15.60
2022-12-14T03:04:41.258Z,13.90
2022-12-14T03:05:41.238Z,14.90
2022-12-14T03:06:41.204Z,14.50
2022-12-14T03:07:41.171Z,13.70
2022-12-14T03:08:41.143Z,14.70
2022-12-14T03:09:41.108Z,12.80
2022-12-14T03:10:41.076Z,14.10
2022-12-14T03:11:41.070Z,14.50
2022-12-14T03:12:41.022Z,14.10
2022-12-14T03:13:40.989Z,14.00
2022-12-14T03:14:40.956Z,13.50
2022-12-14T03:15:40.928Z,13.40
2022-12-14T03:16:40.943Z,13.50
2022-12-14T03:17:40.869Z,13.10
2022-12-14T03:18:40.839Z,11.80
2022-12-14T03:19:40.816Z,11.90
2022-12-14T03:20:40.779Z,12.20
2022-12-14T03:21:40.750Z,12.00
2022-12-14T03:22:40.711Z,11.90
2022-12-14T03:23:40.685Z,12.40
2022-12-14T03:24:40.655Z,12.40
2022-12-14T03:25:40.628Z,11.40
2022-12-14T03:26:45.654Z,12.00
2022-12-14T03:27:40.585Z,12.40
2022-12-14T03:28:40.535Z,11.90
2022-12-14T03:29:40.499Z,12.20
2022-12-14T03:30:59.506Z,11.50
2022-12-14T03:31:40.544Z,13.00
2022-12-14T03:32:40.413Z,13.10
2022-12-14T03:33:40.383Z,13.00
2022-12-14T03:34:40.353Z,13.90
2022-12-14T03:35:40.322Z,14.20
2022-12-14T03:36:40.286Z,13.30
2022-12-14T03:37:40.257Z,13.90
2022-12-14T03:38:40.228Z,13.70
2022-12-14T03:39:40.203Z,13.30
2022-12-14T03:40:40.166Z,14.10
2022-12-14T03:41:40.141Z,12.90
2022-12-14T03:42:40.106Z,12.80
2022-12-14T03:43:40.097Z,11.90
2022-12-14T03:44:48.915Z,11.70
2022-12-14T03:45:40.070Z,12.20
2022-12-14T03:46:39.980Z,11.10
2022-12-14T03:47:39.958Z,11.30
2022-12-14T03:48:39.934Z,11.50
2022-12-14T03:49:39.895Z,12.00
2022-12-14T03:50:39.860Z,11.50
2022-12-14T03:51:39.832Z,11.20
2022-12-14T03:52:39.806Z,11.50
2022-12-14T03:53:39.778Z,11.40
2022-12-14T03:54:39.740Z,11.50
2022-12-14T03:55:39.713Z,10.80
2022-12-14T03:56:39.683Z,11.00
2022-12-14T03:57:39.652Z,11.60
2022-12-14T03:58:39.618Z,11.40
2022-12-14T03:59:39.614Z,12.00
2022-12-14T04:00:39.645Z,11.50
2022-12-14T04:01:39.652Z,11.30
2022-12-14T04:02:41.146Z,10.90
2022-12-14T04:03:39.472Z,10.20
2022-12-14T04:04:39.440Z,10.60
2022-12-14T04:05:42.907Z,10.30
2022-12-14T04:06:39.378Z,10.60
2022-12-14T04:07:39.348Z,11.20
2022-12-14T04:08:39.317Z,11.10
2022-12-14T04:09:39.285Z,10.40
2022-12-14T04:10:39.260Z,10.50
2022-12-14T04:11:39.228Z,10.50
2022-12-14T04:12:39.202Z,10.70
2022-12-14T04:13:39.166Z,10.90
2022-12-14T04:14:39.130Z,10.60
2022-12-14T04:15:39.128Z,11.40
2022-12-14T04:16:39.099Z,10.80
2022-12-14T04:17:39.047Z,10.90
2022-12-14T04:18:39.013Z,10.40
2022-12-14T04:19:38.984Z,11.50
2022-12-14T04:20:38.946Z,11.40
2022-12-14T04:21:38.919Z,10.60
2022-12-14T04:22:38.885Z,10.50
2022-12-14T04:23:38.860Z,10.60
2022-12-14T04:24:38.825Z,10.50
2022-12-14T04:25:38.802Z,11.80
2022-12-14T04:26:38.773Z,10.90
2022-12-14T04:27:38.740Z,10.50
2022-12-14T04:28:38.702Z,9.90
2022-12-14T04:29:41.530Z,10.40
2022-12-14T04:30:38.646Z,10.90
2022-12-14T04:31:38.715Z,11.30
2022-12-14T04:32:38.634Z,10.10
2022-12-14T04:33:38.560Z,10.30
2022-12-14T04:34:38.528Z,10.40
2022-12-14T04:35:38.497Z,10.70
2022-12-14T04:36:38.465Z,10.40
2022-12-14T04:37:38.434Z,11.20
2022-12-14T04:38:38.409Z,11.50
2022-12-14T04:39:38.375Z,10.50
2022-12-14T04:40:38.340Z,10.80
2022-12-14T04:41:38.312Z,10.20
2022-12-14T04:42:38.281Z,10.20
2022-12-14T04:43:38.253Z,10.70
2022-12-14T04:44:38.217Z,10.40
2022-12-14T04:45:38.244Z,11.00
2022-12-14T04:46:40.706Z,10.40
2022-12-14T04:47:38.147Z,10.20
2022-12-14T04:48:38.099Z,10.60
2022-12-14T04:49:38.072Z,10.90
2022-12-14T04:50:38.041Z,11.10
2022-12-14T04:51:38.009Z,11.20
2022-12-14T04:52:37.980Z,10.80
2022-12-14T04:53:37.948Z,10.90
2022-12-14T04:54:37.918Z,10.70
2022-12-14T04:55:37.895Z,10.30
2022-12-14T04:56:37.858Z,10.90
2022-12-14T04:57:37.824Z,11.30
2022-12-14T04:58:37.794Z,10.10
2022-12-14T04:59:37.767Z,11.10
2022-12-14T05:00:37.731Z,10.50
2022-12-14T05:01:37.803Z,10.90
2022-12-14T05:02:37.807Z,10.40
2022-12-14T05:03:37.664Z,10.20
2022-12-14T05:04:37.613Z,10.90
2022-12-14T05:05:37.581Z,11.60
2022-12-14T05:06:37.551Z,10.80
2022-12-14T05:07:37.525Z,10.50
2022-12-14T05:08:37.495Z,10.80
2022-12-14T05:09:37.465Z,10.90
2022-12-14T05:10:37.430Z,10.20
2022-12-14T05:11:53.255Z,10.20
2022-12-14T05:12:37.365Z,11.60
2022-12-14T05:13:37.346Z,10.30
2022-12-14T05:14:37.305Z,11.10
2022-12-14T05:15:37.278Z,12.10
2022-12-14T05:16:37.295Z,11.50
2022-12-14T05:17:37.220Z,12.10
2022-12-14T05:18:37.184Z,11.60
2022-12-14T05:19:37.214Z,12.90
2022-12-14T05:20:37.125Z,14.40
2022-12-14T05:21:37.100Z,18.00
2022-12-14T05:22:37.061Z,19.50
2022-12-14T05:23:37.037Z,16.90
2022-12-14T05:24:36.999Z,13.70
2022-12-14T05:25:36.975Z,14.00
2022-12-14T05:26:36.940Z,12.60
2022-12-14T05:27:36.913Z,11.30
2022-12-14T05:28:36.888Z,12.10
2022-12-14T05:29:36.854Z,11.10
2022-12-14T05:30:36.981Z,11.70
2022-12-14T05:31:36.792Z,11.60
2022-12-14T05:32:36.763Z,11.10
2022-12-14T05:33:36.725Z,12.10
2022-12-14T05:34:36.697Z,12.00
2022-12-14T05:35:36.684Z,12.40
2022-12-14T05:36:36.646Z,12.70
2022-12-14T05:37:36.607Z,13.60
2022-12-14T05:38:36.579Z,12.80
2022-12-14T05:39:36.543Z,11.90
2022-12-14T05:40:36.516Z,12.60
2022-12-14T05:41:36.483Z,12.00
2022-12-14T05:42:42.610Z,12.50
2022-12-14T05:43:36.423Z,14.10
2022-12-14T05:44:36.394Z,13.40
2022-12-14T05:45:36.381Z,12.80
2022-12-14T05:46:36.333Z,11.80
2022-12-14T05:47:36.297Z,11.10
2022-12-14T05:48:36.270Z,10.30
2022-12-14T05:49:36.239Z,10.80
2022-12-14T05:50:36.207Z,10.20
2022-12-14T05:51:36.206Z,10.20
2022-12-14T05:52:36.157Z,10.80
2022-12-14T05:53:36.116Z,9.80
2022-12-14T05:54:36.094Z,9.90
2022-12-14T05:55:36.055Z,10.00
2022-12-14T05:56:36.031Z,9.80
2022-12-14T05:57:36.003Z,10.30
2022-12-14T05:58:35.969Z,10.00
2022-12-14T05:59:35.939Z,9.40
2022-12-14T06:00:35.911Z,9.60
2022-12-14T06:01:35.926Z,9.90
2022-12-14T06:02:35.869Z,9.90
2022-12-14T06:03:35.808Z,9.90
2022-12-14T06:04:35.859Z,10.50
2022-12-14T06:05:35.750Z,10.40
2022-12-14T06:06:35.725Z,10.30
2022-12-14T06:07:35.713Z,10.40
2022-12-14T06:08:35.659Z,10.50
2022-12-14T06:09:35.624Z,11.10
2022-12-14T06:10:35.602Z,11.00
2022-12-14T06:11:35.563Z,11.10
2022-12-14T06:12:35.542Z,10.00
2022-12-14T06:13:35.511Z,12.20
2022-12-14T06:14:35.484Z,11.30
2022-12-14T06:15:35.517Z,10.80
2022-12-14T06:16:35.423Z,11.90
2022-12-14T06:17:35.387Z,11.70
2022-12-14T06:18:35.357Z,11.00
2022-12-14T06:19:35.341Z,11.90
2022-12-14T06:20:35.296Z,12.50
2022-12-14T06:21:35.269Z,12.10
2022-12-14T06:22:35.229Z,11.40
2022-12-14T06:23:35.219Z,11.80
2022-12-14T06:24:35.174Z,12.00
2022-12-14T06:25:35.143Z,11.20
2022-12-14T06:26:35.110Z,11.50
2022-12-14T06:27:35.079Z,11.70
2022-12-14T06:28:35.048Z,11.00
2022-12-14T06:29:35.015Z,12.00
2022-12-14T06:30:34.988Z,10.80
2022-12-14T06:31:34.956Z,11.30
2022-12-14T06:32:34.937Z,10.90
2022-12-14T06:33:34.898Z,10.50
2022-12-14T06:34:39.044Z,11.70
2022-12-14T06:35:34.829Z,11.50
2022-12-14T06:36:34.809Z,11.90
2022-12-14T06:37:34.772Z,11.40
2022-12-14T06:38:34.748Z,11.80
2022-12-14T06:39:34.732Z,12.40
2022-12-14T06:40:34.689Z,12.80
2022-12-14T06:41:34.647Z,12.20
2022-12-14T06:42:34.620Z,12.10
2022-12-14T06:43:34.589Z,12.10
2022-12-14T06:44:34.561Z,13.00
2022-12-14T06:45:34.529Z,12.90
2022-12-14T06:46:34.538Z,12.20
2022-12-14T06:47:34.471Z,12.10
2022-12-14T06:48:34.437Z,13.40
2022-12-14T06:49:34.484Z,11.90
2022-12-14T06:50:34.374Z,11.90
2022-12-14T06:51:34.339Z,11.80
2022-12-14T06:52:34.315Z,11.00
2022-12-14T06:53:34.280Z,11.00
2022-12-14T06:54:34.257Z,10.30
2022-12-14T06:55:34.246Z,10.40
2022-12-14T06:56:34.194Z,10.20
2022-12-14T06:57:34.159Z,9.60
2022-12-14T06:58:34.134Z,10.10
2022-12-14T06:59:34.097Z,10.30
2022-12-14T07:00:34.072Z,10.20
2022-12-14T07:01:34.120Z,10.10
2022-12-14T07:02:34.252Z,10.40
2022-12-14T07:03:34.021Z,9.90
2022-12-14T07:04:33.947Z,11.20
2022-12-14T07:05:33.909Z,11.80
2022-12-14T07:06:33.891Z,12.80
2022-12-14T07:07:33.850Z,13.60
2022-12-14T07:08:33.826Z,12.60
2022-12-14T07:09:33.803Z,13.30
2022-12-14T07:10:33.770Z,13.40
2022-12-14T07:11:33.756Z,14.20
2022-12-14T07:12:33.702Z,12.00
2022-12-14T07:13:33.676Z,12.80
2022-12-14T07:14:33.645Z,11.70
2022-12-14T07:15:33.696Z,11.50
2022-12-14T07:16:33.585Z,12.80
2022-12-14T07:17:33.555Z,12.20
2022-12-14T07:18:33.524Z,11.40
2022-12-14T07:19:33.485Z,11.70
2022-12-14T07:20:33.460Z,12.60
2022-12-14T07:21:33.424Z,12.60
2022-12-14T07:22:33.400Z,11.50
2022-12-14T07:23:33.781Z,11.30
2022-12-14T07:24:33.357Z,12.60
2022-12-14T07:25:33.303Z,11.60
2022-12-14T07:26:33.275Z,11.70
2022-12-14T07:27:33.275Z,12.70
2022-12-14T07:28:33.215Z,11.60
2022-12-14T07:29:34.936Z,11.60
2022-12-14T07:30:33.154Z,11.90
2022-12-14T07:31:33.159Z,10.60
2022-12-14T07:32:33.094Z,11.10
2022-12-14T07:33:33.064Z,11.00
2022-12-14T07:34:33.036Z,11.30
2022-12-14T07:35:32.997Z,10.60
2022-12-14T07:36:32.977Z,10.70
2022-12-14T07:37:32.940Z,10.90
2022-12-14T07:38:32.914Z,10.00
2022-12-14T07:39:32.875Z,10.90
2022-12-14T07:40:32.846Z,12.00
2022-12-14T07:41:32.823Z,12.00
2022-12-14T07:42:32.784Z,11.10
2022-12-14T07:43:32.777Z,10.60
2022-12-14T07:44:32.731Z,11.70
2022-12-14T07:45:32.693Z,11.40
2022-12-14T07:46:32.798Z,11.40
2022-12-14T07:47:32.629Z,11.20
2022-12-14T07:48:32.607Z,10.80
2022-12-14T07:49:32.570Z,10.80
2022-12-14T07:50:32.550Z,9.90
2022-12-14T07:51:32.513Z,9.90
2022-12-14T07:52:37.301Z,10.60
2022-12-14T07:53:32.445Z,9.80
2022-12-14T07:54:32.422Z,9.10
2022-12-14T07:55:32.388Z,9.70
2022-12-14T07:56:32.361Z,9.70
2022-12-14T07:57:32.326Z,9.00
2022-12-14T07:58:32.301Z,8.90
2022-12-14T07:59:32.287Z,9.90
2022-12-14T08:00:32.242Z,9.90
2022-12-14T08:01:32.406Z,9.70
2022-12-14T08:02:32.329Z,10.20
2022-12-14T08:03:32.446Z,10.10
2022-12-14T08:04:32.166Z,10.50
2022-12-14T08:05:32.083Z,10.00
2022-12-14T08:06:32.060Z,9.10
2022-12-14T08:07:32.025Z,10.40
2022-12-14T08:08:32.001Z,9.70
2022-12-14T08:09:31.961Z,9.60
2022-12-14T08:10:35.759Z,9.80
2022-12-14T08:11:31.903Z,9.20
2022-12-14T08:12:31.877Z,9.70
2022-12-14T08:13:32.227Z,9.00
2022-12-14T08:14:31.812Z,10.20
2022-12-14T08:15:31.803Z,9.10
2022-12-14T08:16:31.839Z,10.00
2022-12-14T08:17:31.719Z,9.80
2022-12-14T08:18:31.687Z,9.30
2022-12-14T08:19:31.656Z,9.50
2022-12-14T08:20:31.627Z,9.90
2022-12-14T08:21:31.596Z,9.50
2022-12-14T08:22:31.569Z,9.50
2022-12-14T08:23:32.170Z,9.10
2022-12-14T08:24:31.508Z,10.20
2022-12-14T08:25:31.472Z,9.70
2022-12-14T08:26:35.529Z,8.90
2022-12-14T08:27:31.414Z,9.30
2022-12-14T08:28:31.385Z,8.90
2022-12-14T08:29:31.350Z,10.00
2022-12-14T08:30:31.326Z,9.80
2022-12-14T08:31:31.381Z,10.10
2022-12-14T08:32:34.421Z,9.10
2022-12-14T08:33:31.895Z,9.80
2022-12-14T08:34:31.209Z,9.20
2022-12-14T08:35:31.172Z,9.50
2022-12-14T08:36:31.161Z,8.60
2022-12-14T08:37:31.106Z,9.20
2022-12-14T08:38:31.084Z,10.20
2022-12-14T08:39:31.050Z,9.40
2022-12-14T08:40:31.025Z,9.90
2022-12-14T08:41:30.993Z,9.70
2022-12-14T08:42:30.966Z,9.80
2022-12-14T08:43:31.353Z,9.30
2022-12-14T08:44:30.903Z,9.60
2022-12-14T08:45:30.866Z,9.90
2022-12-14T08:46:30.922Z,9.20
2022-12-14T08:47:30.826Z,8.70
2022-12-14T08:48:30.781Z,9.40
2022-12-14T08:49:32.397Z,9.50
2022-12-14T08:50:30.728Z,10.10
2022-12-14T08:51:30.684Z,10.10
2022-12-14T08:52:30.660Z,9.00
2022-12-14T08:53:31.133Z,9.10
2022-12-14T08:54:30.601Z,10.20
2022-12-14T08:55:35.183Z,9.90
2022-12-14T08:56:30.533Z,10.40
2022-12-14T08:57:30.507Z,8.30
2022-12-14T08:58:30.475Z,9.00
2022-12-14T09:00:00.336Z,9.00
2022-12-14T09:00:30.484Z,8.70
2022-12-14T09:01:34.004Z,9.50
2022-12-14T09:02:30.526Z,9.10
2022-12-14T09:03:30.642Z,9.70
2022-12-14T09:04:30.297Z,9.30
2022-12-14T09:05:30.260Z,9.70
2022-12-14T09:06:30.233Z,9.60
2022-12-14T09:07:30.204Z,9.30
2022-12-14T09:08:30.185Z,9.50
2022-12-14T09:09:30.139Z,9.40
2022-12-14T09:10:30.113Z,9.10
2022-12-14T09:11:30.076Z,9.00
2022-12-14T09:12:30.053Z,9.90
2022-12-14T09:13:30.601Z,10.00
2022-12-14T09:14:29.989Z,9.30
2022-12-14T09:15:29.955Z,9.80
2022-12-14T09:16:29.993Z,9.50
2022-12-14T09:17:29.902Z,9.50
2022-12-14T09:18:30.148Z,9.20
2022-12-14T09:19:29.835Z,10.20
2022-12-14T09:20:29.811Z,9.90
2022-12-14T09:21:29.772Z,9.50
2022-12-14T09:22:29.751Z,9.90
2022-12-14T09:23:30.169Z,9.20
2022-12-14T09:24:29.686Z,9.00
2022-12-14T09:25:29.651Z,9.50
2022-12-14T09:26:29.638Z,8.30
2022-12-14T09:27:29.595Z,9.20
2022-12-14T09:28:29.566Z,9.80
2022-12-14T09:29:29.530Z,9.00
2022-12-14T09:30:29.505Z,9.20
2022-12-14T09:31:29.538Z,9.00
2022-12-14T09:32:29.447Z,10.00
2022-12-14T09:33:29.824Z,9.40
2022-12-14T09:34:29.379Z,8.80
2022-12-14T09:35:29.348Z,9.30
2022-12-14T09:36:29.324Z,10.00
2022-12-14T09:37:29.286Z,9.70
2022-12-14T09:38:29.256Z,9.90
2022-12-14T09:39:29.225Z,10.40
2022-12-14T09:40:29.202Z,9.70
2022-12-14T09:41:29.163Z,9.90
2022-12-14T09:42:29.140Z,9.70
2022-12-14T09:43:29.683Z,9.50
2022-12-14T09:44:29.086Z,10.40
2022-12-14T09:45:29.154Z,10.40
2022-12-14T09:46:29.013Z,10.70
2022-12-14T09:47:28.988Z,10.90
2022-12-14T09:48:29.360Z,12.20
2022-12-14T09:49:28.930Z,13.40
2022-12-14T09:50:28.894Z,13.80
2022-12-14T09:51:29.016Z,14.80
2022-12-14T09:52:28.837Z,14.50
2022-12-14T09:53:29.325Z,14.00
2022-12-14T09:54:28.771Z,14.00
2022-12-14T09:55:28.746Z,14.60
2022-12-14T09:56:28.711Z,14.10
2022-12-14T09:57:28.683Z,14.00
2022-12-14T09:58:29.036Z,13.90
2022-12-14T09:59:28.624Z,13.00
2022-12-14T10:00:28.592Z,13.50
2022-12-14T10:01:28.628Z,12.90
2022-12-14T10:02:31.280Z,12.30
2022-12-14T10:03:29.266Z,12.30
2022-12-14T10:04:28.542Z,12.30
2022-12-14T10:05:28.439Z,13.20
2022-12-14T10:06:28.405Z,13.00
2022-12-14T10:07:33.885Z,13.90
2022-12-14T10:08:28.876Z,12.40
2022-12-14T10:09:28.317Z,12.10
2022-12-14T10:10:28.288Z,11.80
2022-12-14T10:11:28.257Z,11.20
2022-12-14T10:12:33.945Z,11.10
2022-12-14T10:13:28.588Z,10.40
2022-12-14T10:14:28.173Z,10.00
2022-12-14T10:15:28.130Z,11.50
2022-12-14T10:16:28.115Z,10.70
2022-12-14T10:17:28.076Z,10.80
2022-12-14T10:18:57.476Z,11.50
2022-12-14T10:19:28.009Z,9.70
2022-12-14T10:20:27.983Z,10.00
2022-12-14T10:21:27.952Z,10.10
2022-12-14T10:22:27.921Z,10.50
2022-12-14T10:23:27.895Z,10.10
2022-12-14T10:24:27.856Z,10.50
2022-12-14T10:25:27.835Z,10.30
2022-12-14T10:26:27.798Z,10.40
2022-12-14T10:27:34.154Z,10.50
2022-12-14T10:28:28.088Z,11.60
2022-12-14T10:29:27.713Z,11.20
2022-12-14T10:30:27.676Z,10.80
2022-12-14T10:31:27.781Z,10.50
2022-12-14T10:32:27.612Z,10.50
2022-12-14T10:33:27.587Z,10.50
2022-12-14T10:34:27.553Z,10.00
2022-12-14T10:35:27.527Z,10.60
2022-12-14T10:36:27.497Z,10.40
2022-12-14T10:37:27.463Z,10.60
2022-12-14T10:38:27.847Z,10.60
2022-12-14T10:39:27.406Z,9.60
2022-12-14T10:40:33.800Z,10.40
2022-12-14T10:41:27.341Z,10.00
2022-12-14T10:42:27.310Z,9.80
2022-12-14T10:43:27.286Z,10.10
2022-12-14T10:44:27.254Z,10.60
2022-12-14T10:45:42.803Z,9.90
2022-12-14T10:46:27.226Z,11.20
2022-12-14T10:47:27.165Z,9.30
2022-12-14T10:48:27.589Z,10.50
2022-12-14T10:49:27.102Z,10.50
2022-12-14T10:50:27.072Z,10.20
2022-12-14T10:51:27.039Z,10.10
2022-12-14T10:52:27.006Z,10.50
2022-12-14T10:53:26.980Z,10.40
2022-12-14T10:54:26.947Z,9.80
2022-12-14T10:55:26.921Z,10.30
2022-12-14T10:56:26.907Z,11.50
2022-12-14T10:57:26.860Z,13.10
2022-12-14T10:58:27.120Z,12.10
2022-12-14T10:59:26.798Z,10.50
2022-12-14T11:00:26.766Z,12.00
2022-12-14T11:01:26.887Z,12.90
2022-12-14T11:02:26.851Z,20.90
2022-12-14T11:03:26.747Z,20.20
2022-12-14T11:04:26.648Z,15.40
2022-12-14T11:05:31.079Z,11.30
2022-12-14T11:06:26.584Z,10.90
2022-12-14T11:07:26.559Z,10.20
2022-12-14T11:08:26.824Z,10.40
2022-12-14T11:09:26.502Z,10.90
2022-12-14T11:10:26.471Z,9.90
2022-12-14T11:11:26.504Z,10.30
2022-12-14T11:12:26.404Z,10.50
2022-12-14T11:13:26.379Z,10.30
2022-12-14T11:14:26.340Z,9.30
2022-12-14T11:15:26.318Z,9.40
2022-12-14T11:16:31.856Z,9.80
2022-12-14T11:17:26.407Z,10.80
2022-12-14T11:18:26.599Z,10.20
2022-12-14T11:19:26.195Z,10.60
2022-12-14T11:20:26.165Z,9.60
2022-12-14T11:21:26.132Z,9.80
2022-12-14T11:22:26.100Z,10.00
2022-12-14T11:23:26.074Z,9.60
2022-12-14T11:24:26.044Z,9.80
2022-12-14T11:25:26.014Z,9.90
2022-12-14T11:26:25.978Z,9.40
2022-12-14T11:27:25.956Z,9.90
2022-12-14T11:28:27.342Z,9.90
2022-12-14T11:29:25.893Z,9.50
2022-12-14T11:30:25.931Z,10.10
2022-12-14T11:31:25.894Z,9.90
2022-12-14T11:32:25.803Z,10.00
2022-12-14T11:33:25.774Z,9.90
2022-12-14T11:34:25.738Z,9.40
2022-12-14T11:35:25.713Z,10.40
2022-12-14T11:36:25.677Z,9.60
2022-12-14T11:37:25.653Z,10.20
2022-12-14T11:38:25.775Z,9.50
2022-12-14T11:39:25.594Z,9.60
2022-12-14T11:40:25.564Z,9.60
2022-12-14T11:41:25.536Z,10.40
2022-12-14T11:42:25.497Z,9.70
2022-12-14T11:43:25.470Z,9.80
2022-12-14T11:44:25.442Z,9.50
2022-12-14T11:45:25.419Z,9.40
2022-12-14T11:46:25.404Z,10.30
2022-12-14T11:47:25.353Z,9.80
2022-12-14T11:48:25.318Z,10.40
2022-12-14T11:49:25.293Z,10.50
2022-12-14T11:50:25.261Z,9.90
2022-12-14T11:51:25.230Z,10.80
2022-12-14T11:52:25.196Z,9.90
2022-12-14T11:53:25.177Z,9.80
2022-12-14T11:54:25.155Z,9.70
2022-12-14T11:55:27.266Z,9.60
2022-12-14T11:56:25.084Z,10.10
2022-12-14T11:57:25.052Z,10.10
2022-12-14T11:58:25.020Z,10.10
2022-12-14T11:59:24.993Z,10.50
2022-12-14T12:00:24.964Z,12.10
2022-12-14T12:01:25.042Z,10.30
2022-12-14T12:02:24.935Z,10.80
2022-12-14T12:03:24.929Z,10.30
2022-12-14T12:04:24.848Z,9.30
2022-12-14T12:05:24.815Z,10.60
2022-12-14T12:06:24.780Z,11.50
2022-12-14T12:07:24.753Z,18.80
2022-12-14T12:08:24.715Z,12.90
2022-12-14T12:09:24.696Z,13.90
2022-12-14T12:10:24.656Z,14.10
2022-12-14T12:11:24.657Z,12.40
2022-12-14T12:12:24.602Z,11.20
2022-12-14T12:13:24.580Z,10.20
2022-12-14T12:14:24.541Z,9.90
2022-12-14T12:15:24.690Z,10.30
2022-12-14T12:16:24.598Z,9.50
2022-12-14T12:17:24.451Z,9.70
2022-12-14T12:18:24.419Z,9.30
2022-12-14T12:19:24.398Z,13.00
2022-12-14T12:20:24.362Z,19.00
2022-12-14T12:21:24.337Z,18.40
2022-12-14T12:22:24.309Z,18.80
2022-12-14T12:23:24.274Z,15.70
2022-12-14T12:24:24.243Z,13.10
2022-12-14T12:25:27.595Z,10.10
2022-12-14T12:26:24.180Z,10.10
2022-12-14T12:27:24.169Z,9.90
2022-12-14T12:28:24.124Z,10.20
2022-12-14T12:29:24.095Z,15.70
2022-12-14T12:30:24.064Z,11.90
2022-12-14T12:31:24.058Z,18.40
2022-12-14T12:32:24.007Z,20.00
2022-12-14T12:33:23.976Z,34.70
2022-12-14T12:34:23.940Z,27.90
2022-12-14T12:35:23.917Z,25.10
2022-12-14T12:36:24.514Z,33.60
2022-12-14T12:37:26.702Z,18.20
2022-12-14T12:38:23.828Z,11.40
2022-12-14T12:39:23.796Z,11.00
2022-12-14T12:40:23.764Z,10.10
2022-12-14T12:41:23.736Z,10.00
2022-12-14T12:42:23.701Z,9.90
2022-12-14T12:43:23.677Z,9.70
2022-12-14T12:44:23.644Z,9.50
2022-12-14T12:45:23.616Z,9.60
2022-12-14T12:46:23.616Z,11.60
2022-12-14T12:47:28.263Z,11.70
2022-12-14T12:48:23.525Z,11.10
2022-12-14T12:49:23.503Z,10.20
2022-12-14T12:50:23.465Z,9.60
2022-12-14T12:51:23.435Z,9.20
2022-12-14T12:52:23.409Z,9.80
2022-12-14T12:53:23.377Z,16.20
2022-12-14T12:54:23.342Z,11.50
2022-12-14T12:55:23.323Z,19.20
2022-12-14T12:56:23.285Z,20.50
2022-12-14T12:57:23.258Z,29.70